Time;durP1;ratioP1;P1;durP2;ratioP2;P2;SDS_P1;SDS_P2;PMS_P1;PMS_P2;Temp;Humidity;BMP_temperature;BMP_pressure;BME280_temperature;BME280_humidity;BME280_pressure;Samples;Min_cycle;Max_cycle;Signal;HPM_P1;HPM_P2
2023/12/02 00:00:45;;;;;;;20.77;8.32;;;;;;;22.39;nan;99484.44;7397854;19;20010;-56
2023/12/02 00:03:11;;;;;;;2.70;2.30;;;;;;;22.28;nan;99494.09;7401703;19;20473;-56
2023/12/02 00:05:37;;;;;;;2.20;2.10;;;;;;;22.05;nan;99487.59;7400517;19;20058;-56
2023/12/02 00:08:04;;;;;;;4.40;4.07;;;;;;;21.84;nan;99489.81;7400765;19;20019;-56
2023/12/02 00:10:30;;;;;;;4.85;3.47;;;;;;;21.28;nan;99495.59;7398679;19;20066;-56
2023/12/02 00:12:56;;;;;;;37.60;7.63;;;;;;;21.81;nan;99490.91;7399970;19;20022;-56
2023/12/02 00:15:22;;;;;;;3.10;2.85;;;;;;;22.07;nan;99482.09;7400417;19;20011;-56
2023/12/02 00:17:48;;;;;;;7.57;5.00;;;;;;;22.06;nan;99483.44;7399015;19;20026;-56
2023/12/02 00:20:14;;;;;;;7.63;5.22;;;;;;;22.11;nan;99488.16;7398211;19;20003;-55
2023/12/02 00:22:40;;;;;;;12.93;4.13;;;;;;;22.12;nan;99484.03;7398003;19;20050;-55
2023/12/02 00:25:07;;;;;;;2.80;2.13;;;;;;;21.73;nan;99485.22;7398693;19;20801;-55
2023/12/02 00:27:33;;;;;;;7.43;4.43;;;;;;;21.92;nan;99484.19;7398155;19;20022;-56
2023/12/02 00:29:59;;;;;;;5.30;3.60;;;;;;;21.75;nan;99476.91;7399138;19;20018;-56
2023/12/02 00:32:25;;;;;;;15.65;6.72;;;;;;;21.57;nan;99471.56;7397797;19;20014;-56
2023/12/02 00:34:52;;;;;;;7.22;6.53;;;;;;;21.31;nan;99478.22;7395216;19;20011;-56
2023/12/02 00:37:18;;;;;;;5.80;4.03;;;;;;;20.47;nan;99476.13;7402082;19;20017;-56
2023/12/02 00:39:44;;;;;;;5.55;5.05;;;;;;;21.29;nan;99474.47;7397182;19;20360;-56
2023/12/02 00:42:11;;;;;;;21.50;5.28;;;;;;;21.59;nan;99480.25;7395028;19;20006;-56
2023/12/02 00:44:37;;;;;;;39.30;6.38;;;;;;;22.06;nan;99483.44;7397458;19;20337;-56
2023/12/02 00:47:03;;;;;;;9.10;4.30;;;;;;;22.14;nan;99478.53;7397229;19;20022;-56
2023/12/02 00:49:29;;;;;;;18.75;7.32;;;;;;;21.52;nan;99478.16;7400006;19;20015;-57
2023/12/02 00:51:55;;;;;;;4.25;2.90;;;;;;;20.91;nan;99480.63;7398309;19;20451;-56
2023/12/02 00:54:21;;;;;;;7.18;3.53;;;;;;;20.46;nan;99479.53;7397795;19;20015;-56
2023/12/02 00:56:47;;;;;;;2.95;2.75;;;;;;;20.16;nan;99480.72;7397236;19;20011;-56
2023/12/02 00:59:13;;;;;;;6.78;5.32;;;;;;;19.96;nan;99480.72;7397480;19;20015;-57
2023/12/02 01:01:40;;;;;;;7.68;4.85;;;;;;;19.83;nan;99489.25;7397814;19;20455;-56
2023/12/02 01:04:06;;;;;;;15.38;5.68;;;;;;;19.86;nan;99490.97;7397949;19;20022;-56
2023/12/02 01:06:32;;;;;;;9.70;4.32;;;;;;;20.06;nan;99490.22;7398716;19;20010;-56
2023/12/02 01:08:58;;;;;;;4.63;3.53;;;;;;;20.18;nan;99488.66;7399242;19;20366;-56
2023/12/02 01:11:24;;;;;;;13.10;5.43;;;;;;;20.30;nan;99492.75;7397740;19;20490;-54
2023/12/02 01:13:50;;;;;;;3.38;2.42;;;;;;;20.07;nan;99501.00;7397509;19;20038;-54
2023/12/02 01:16:16;;;;;;;5.10;3.90;;;;;;;20.08;nan;99485.56;7397907;19;20276;-54
2023/12/02 01:18:42;;;;;;;21.48;6.03;;;;;;;20.08;nan;99494.03;7396952;19;20011;-55
2023/12/02 01:21:09;;;;;;;9.18;3.88;;;;;;;20.18;nan;99488.66;7396784;19;20011;-56
2023/12/02 01:23:35;;;;;;;6.47;3.10;;;;;;;20.22;nan;99491.94;7397193;19;20026;-55
2023/12/02 01:26:01;;;;;;;2.45;2.35;;;;;;;19.87;nan;99498.91;7397104;19;20463;-54
2023/12/02 01:28:27;;;;;;;10.57;6.13;;;;;;;19.62;nan;99494.84;7396368;19;20018;-55
2023/12/02 01:30:53;;;;;;;14.85;3.80;;;;;;;19.62;nan;99495.59;7400362;19;20017;-55
2023/12/02 01:33:19;;;;;;;4.43;4.10;;;;;;;19.38;nan;99497.94;7396016;19;20021;-55
2023/12/02 01:35:45;;;;;;;29.95;4.72;;;;;;;19.67;nan;99500.38;7397647;19;20010;-55
2023/12/02 01:38:12;;;;;;;11.18;7.30;;;;;;;19.59;nan;99496.69;7396318;19;20014;-55
2023/12/02 01:40:38;;;;;;;7.43;5.75;;;;;;;19.61;nan;99498.97;7395327;19;20070;-54
2023/12/02 01:43:04;;;;;;;4.70;3.70;;;;;;;19.54;nan;99497.56;7396817;19;20013;-55
2023/12/02 01:45:30;;;;;;;4.80;4.25;;;;;;;19.43;nan;99505.50;7395931;19;20015;-55
2023/12/02 01:47:58;;;;;;;29.95;4.75;;;;;;;19.34;nan;99501.06;7395621;19;20003;-55
2023/12/02 01:50:25;;;;;;;25.67;6.28;;;;;;;19.46;nan;99496.72;7396137;19;20010;-56
2023/12/02 01:52:51;;;;;;;11.57;6.20;;;;;;;19.23;nan;99497.69;7395136;19;20018;-55
2023/12/02 01:55:17;;;;;;;3.30;3.10;;;;;;;19.14;nan;99501.72;7395749;19;20478;-55
2023/12/02 01:57:43;;;;;;;5.03;3.80;;;;;;;18.79;nan;99502.91;7393721;19;20043;-55
2023/12/02 02:00:10;;;;;;;17.40;6.45;;;;;;;20.11;nan;99506.31;7394165;19;20002;-55
2023/12/02 02:02:39;;;;;;;15.68;2.88;;;;;;;20.37;nan;99514.72;7395742;19;20007;-55
2023/12/02 02:05:06;;;;;;;9.95;4.88;;;;;;;20.54;nan;99502.97;7395790;19;20023;-55
2023/12/02 02:07:32;;;;;;;20.98;7.53;;;;;;;20.39;nan;99510.03;7396065;19;20018;-55
2023/12/02 02:10:00;;;;;;;11.23;5.90;;;;;;;20.33;nan;99517.91;7400940;19;20014;-55
2023/12/02 02:12:26;;;;;;;14.70;5.13;;;;;;;20.31;nan;99514.09;7395771;19;20026;-55
2023/12/02 02:14:52;;;;;;;24.38;6.25;;;;;;;20.38;nan;99514.16;7395099;19;20014;-55
2023/12/02 02:17:19;;;;;;;8.80;6.13;;;;;;;20.57;nan;99513.97;7395595;19;20014;-55
2023/12/02 02:19:45;;;;;;;9.00;3.28;;;;;;;19.56;nan;99528.84;7395133;19;20017;-55
2023/12/02 02:22:11;;;;;;;6.55;4.10;;;;;;;19.32;nan;99528.28;7393586;19;20025;-63
2023/12/02 02:24:37;;;;;;;4.68;2.50;;;;;;;19.50;nan;99533.88;7395564;19;20589;-55
2023/12/02 02:27:04;;;;;;;4.35;3.92;;;;;;;19.30;nan;99542.19;7393919;19;20360;-55
2023/12/02 02:29:30;;;;;;;4.78;4.38;;;;;;;19.31;nan;99544.50;7394554;19;20024;-56
2023/12/02 02:31:56;;;;;;;9.40;4.00;;;;;;;19.56;nan;99536.56;7393893;19;20011;-55
2023/12/02 02:34:22;;;;;;;3.88;3.55;;;;;;;19.50;nan;99539.53;7393176;19;20014;-55
2023/12/02 02:36:48;;;;;;;4.38;3.97;;;;;;;19.37;nan;99544.41;7396318;19;20608;-55
2023/12/02 02:39:15;;;;;;;26.15;6.63;;;;;;;18.85;nan;99543.06;7393619;19;20274;-55
2023/12/02 02:41:41;;;;;;;12.57;5.85;;;;;;;18.78;nan;99542.91;7391758;19;20007;-55
2023/12/02 02:44:07;;;;;;;12.35;4.97;;;;;;;18.89;nan;99546.31;7393759;19;20013;-55
2023/12/02 02:46:33;;;;;;;20.25;4.57;;;;;;;19.24;nan;99542.31;7393410;19;20015;-55
2023/12/02 02:49:00;;;;;;;2.08;1.58;;;;;;;19.44;nan;99538.88;7395663;19;20495;-55
2023/12/02 02:51:26;;;;;;;28.55;4.60;;;;;;;19.15;nan;99548.41;7393410;19;20006;-55
2023/12/02 02:53:52;;;;;;;4.45;4.13;;;;;;;18.73;nan;99536.06;7393771;19;20089;-55
2023/12/02 02:56:19;;;;;;;4.25;2.97;;;;;;;18.65;nan;99535.19;7394200;19;20434;-55
2023/12/02 02:58:45;;;;;;;2.90;2.80;;;;;;;19.16;nan;99535.03;7393065;19;20014;-55
2023/12/02 03:01:12;;;;;;;3.13;2.92;;;;;;;19.56;nan;99537.31;7394114;19;20014;-55
2023/12/02 03:03:39;;;;;;;34.95;8.43;;;;;;;19.43;nan;99534.53;7392930;19;20455;-55
2023/12/02 03:06:06;;;;;;;6.03;3.90;;;;;;;19.85;nan;99534.66;7394534;19;20009;-56
2023/12/02 03:08:32;;;;;;;19.15;8.18;;;;;;;19.64;nan;99541.00;7393624;19;20037;-55
2023/12/02 03:10:58;;;;;;;5.65;4.40;;;;;;;20.35;nan;99532.25;7390444;19;20015;-56
2023/12/02 03:13:25;;;;;;;32.38;6.70;;;;;;;20.83;nan;99525.13;7393216;19;20014;-56
2023/12/02 03:15:51;;;;;;;5.72;3.78;;;;;;;20.49;nan;99527.25;7393610;19;20328;-56
2023/12/02 03:18:17;;;;;;;23.65;5.22;;;;;;;20.33;nan;99534.88;7392269;19;20073;-55
2023/12/02 03:20:43;;;;;;;15.68;5.82;;;;;;;19.29;nan;99541.47;7392667;19;20010;-56
2023/12/02 03:23:10;;;;;;;7.20;3.83;;;;;;;19.17;nan;99545.03;7393262;19;20495;-55
2023/12/02 03:25:36;;;;;;;10.35;3.35;;;;;;;18.85;nan;99547.94;7392675;19;20021;-55
2023/12/02 03:28:02;;;;;;;4.88;2.95;;;;;;;18.93;nan;99549.56;7392162;19;20006;-55
2023/12/02 03:30:28;;;;;;;6.65;3.38;;;;;;;18.78;nan;99543.69;7391334;19;20701;-55
2023/12/02 03:32:54;;;;;;;5.03;4.60;;;;;;;18.85;nan;99548.69;7391383;19;20011;-55
2023/12/02 03:35:20;;;;;;;5.28;4.15;;;;;;;18.88;nan;99546.88;7392724;19;20011;-55
2023/12/02 03:37:46;;;;;;;22.38;5.60;;;;;;;18.77;nan;99552.69;7393079;19;20022;-55
2023/12/02 03:40:13;;;;;;;20.70;4.97;;;;;;;18.83;nan;99550.53;7392597;19;20014;-55
2023/12/02 03:42:39;;;;;;;6.72;4.25;;;;;;;18.88;nan;99541.22;7390671;19;20015;-56
2023/12/02 03:45:06;;;;;;;4.82;4.53;;;;;;;18.67;nan;99537.47;7391095;19;20010;-56
2023/12/02 03:47:33;;;;;;;34.10;5.82;;;;;;;18.56;nan;99543.31;7392405;19;20035;-55
2023/12/02 03:49:59;;;;;;;9.85;3.58;;;;;;;18.60;nan;99543.75;7393229;19;20017;-55
2023/12/02 03:52:25;;;;;;;6.13;3.55;;;;;;;18.51;nan;99533.66;7392432;19;20074;-56
2023/12/02 03:54:52;;;;;;;4.95;3.33;;;;;;;18.50;nan;99539.81;7392308;19;20019;-56
2023/12/02 03:57:18;;;;;;;8.20;3.38;;;;;;;18.61;nan;99545.28;7390375;19;20007;-56
2023/12/02 03:59:44;;;;;;;14.40;3.65;;;;;;;18.61;nan;99551.69;7391144;19;20014;-56
2023/12/02 04:02:10;;;;;;;6.80;4.20;;;;;;;18.74;nan;99548.13;7390513;19;20034;-56
2023/12/02 04:04:37;;;;;;;3.35;2.50;;;;;;;18.66;nan;99552.88;7392485;19;20011;-56
2023/12/02 04:07:04;;;;;;;2.20;2.10;;;;;;;18.27;nan;99549.91;7395658;19;20015;-56
2023/12/02 04:09:30;;;;;;;3.25;2.38;;;;;;;18.61;nan;99557.31;7394760;19;20015;-56
2023/12/02 04:11:56;;;;;;;6.47;3.40;;;;;;;17.88;nan;99558.94;7390650;19;20023;-56
2023/12/02 04:14:22;;;;;;;7.05;5.22;;;;;;;17.75;nan;99556.03;7389284;19;20352;-56
2023/12/02 04:16:49;;;;;;;2.58;2.22;;;;;;;17.60;nan;99556.47;7389926;19;20022;-56
2023/12/02 04:19:15;;;;;;;19.60;3.60;;;;;;;17.53;nan;99554.25;7389251;19;20011;-56
2023/12/02 04:21:45;;;;;;;5.38;3.92;;;;;;;17.42;nan;99554.38;7393773;19;20006;-56
2023/12/02 04:24:11;;;;;;;3.53;2.30;;;;;;;17.45;nan;99550.50;7398212;19;20014;-56
2023/12/02 04:26:37;;;;;;;6.20;4.82;;;;;;;17.50;nan;99546.88;7398142;19;20021;-56
2023/12/02 04:29:03;;;;;;;11.57;4.25;;;;;;;17.52;nan;99552.72;7398137;19;20011;-56
2023/12/02 04:31:32;;;;;;;6.13;3.03;;;;;;;17.48;nan;99555.06;7398311;19;20031;-56
2023/12/02 04:33:58;;;;;;;6.75;4.35;;;;;;;17.68;nan;99559.44;7397202;19;20030;-56
2023/12/02 04:36:24;;;;;;;8.75;4.32;;;;;;;17.73;nan;99553.00;7400565;19;20011;-55
2023/12/02 04:38:51;;;;;;;13.70;6.03;;;;;;;17.58;nan;99556.25;7397870;19;20463;-56
2023/12/02 04:41:17;;;;;;;4.50;4.10;;;;;;;17.43;nan;99553.81;7396973;19;20041;-55
2023/12/02 04:43:43;;;;;;;2.15;2.13;;;;;;;18.57;nan;99551.25;7397604;19;20015;-56
2023/12/02 04:46:10;;;;;;;2.90;2.38;;;;;;;19.00;nan;99556.63;7398161;19;20015;-55
2023/12/02 04:48:36;;;;;;;5.43;1.92;;;;;;;17.61;nan;99552.34;7396400;19;20034;-55
2023/12/02 04:51:02;;;;;;;7.30;3.20;;;;;;;18.96;nan;99556.19;7397342;19;20066;-56
2023/12/02 04:53:28;;;;;;;6.57;3.95;;;;;;;18.26;nan;99557.59;7397097;19;20010;-55
2023/12/02 04:55:55;;;;;;;12.25;5.85;;;;;;;18.11;nan;99560.91;7396151;19;20038;-56
2023/12/02 04:58:22;;;;;;;4.65;3.75;;;;;;;18.48;nan;99560.09;7397320;19;20028;-55
2023/12/02 05:00:48;;;;;;;8.73;4.75;;;;;;;17.52;nan;99561.16;7396393;19;20014;-56
2023/12/02 05:03:17;;;;;;;9.40;4.10;;;;;;;17.49;nan;99559.41;7397331;19;20015;-55
2023/12/02 05:05:44;;;;;;;4.13;3.58;;;;;;;18.28;nan;99559.91;7398369;19;20015;-56
2023/12/02 05:08:10;;;;;;;2.28;2.17;;;;;;;17.80;nan;99561.56;7397523;19;20067;-56
2023/12/02 05:10:36;;;;;;;5.18;2.75;;;;;;;17.90;nan;99561.97;7394949;19;20015;-55
2023/12/02 05:13:02;;;;;;;6.82;4.28;;;;;;;18.83;nan;99564.66;7396823;19;20095;-56
2023/12/02 05:15:28;;;;;;;1.98;1.88;;;;;;;19.02;nan;99562.50;7397520;19;20514;-56
2023/12/02 05:17:54;;;;;;;5.38;2.90;;;;;;;19.08;nan;99574.44;7396036;19;20031;-55
2023/12/02 05:20:20;;;;;;;2.72;2.38;;;;;;;19.10;nan;99566.19;7396594;19;20011;-56
2023/12/02 05:22:46;;;;;;;5.38;3.78;;;;;;;19.28;nan;99571.00;7395271;19;20365;-56
2023/12/02 05:25:13;;;;;;;3.75;3.55;;;;;;;19.46;nan;99578.63;7396617;19;20093;-56
2023/12/02 05:27:39;;;;;;;12.40;5.57;;;;;;;19.48;nan;99581.66;7396037;19;20022;-56
2023/12/02 05:30:06;;;;;;;5.88;4.13;;;;;;;19.38;nan;99574.91;7396981;19;20006;-56
2023/12/02 05:32:32;;;;;;;17.13;3.00;;;;;;;19.25;nan;99574.88;7394675;19;20014;-56
2023/12/02 05:34:58;;;;;;;13.48;4.10;;;;;;;19.23;nan;99583.13;7397034;19;20014;-56
2023/12/02 05:37:24;;;;;;;2.85;2.30;;;;;;;19.30;nan;99582.50;7400873;19;20034;-56
2023/12/02 05:39:50;;;;;;;1.45;1.38;;;;;;;19.21;nan;99582.94;7396974;19;20011;-56
2023/12/02 05:42:16;;;;;;;14.82;4.97;;;;;;;19.34;nan;99579.38;7395321;19;20081;-56
2023/12/02 05:44:42;;;;;;;9.82;3.03;;;;;;;19.71;nan;99575.56;7396635;19;20028;-56
2023/12/02 05:47:09;;;;;;;3.08;2.83;;;;;;;17.83;nan;99585.88;7396699;19;20014;-55
2023/12/02 05:49:35;;;;;;;4.43;2.55;;;;;;;17.53;nan;99590.88;7396396;19;20355;-55
2023/12/02 05:52:01;;;;;;;5.38;4.00;;;;;;;17.40;nan;99587.91;7400122;19;20059;-55
2023/12/02 05:54:28;;;;;;;3.30;2.33;;;;;;;17.40;nan;99590.72;7396242;19;20355;-55
2023/12/02 05:56:54;;;;;;;5.32;2.47;;;;;;;17.41;nan;99592.28;7394684;19;20006;-55
2023/12/02 05:59:21;;;;;;;7.28;3.45;;;;;;;17.49;nan;99596.00;7396172;19;20018;-56
2023/12/02 06:01:47;;;;;;;11.63;3.97;;;;;;;17.47;nan;99592.97;7396094;19;20011;-56
2023/12/02 06:04:14;;;;;;;1.75;1.70;;;;;;;17.45;nan;99595.53;7396190;19;20014;-56
2023/12/02 06:06:45;;;;;;;1.60;1.55;;;;;;;17.49;nan;99584.75;7398194;19;20582;-56
2023/12/02 06:09:11;;;;;;;3.20;3.03;;;;;;;17.55;nan;99588.28;7397751;19;20014;-55
2023/12/02 06:11:38;;;;;;;2.33;2.22;;;;;;;17.29;nan;99588.81;7396461;19;20013;-55
2023/12/02 06:14:05;;;;;;;11.63;3.28;;;;;;;17.43;nan;99581.25;7394058;19;20026;-56
2023/12/02 06:16:31;;;;;;;1.73;1.65;;;;;;;17.60;nan;99579.00;7394422;19;20044;-57
2023/12/02 06:18:57;;;;;;;3.97;3.63;;;;;;;17.70;nan;99585.03;7393231;19;20030;-56
2023/12/02 06:21:23;;;;;;;1.45;1.42;;;;;;;17.53;nan;99576.78;7393190;19;20031;-56
2023/12/02 06:23:50;;;;;;;5.18;4.20;;;;;;;17.37;nan;99577.69;7394472;19;20015;-56
2023/12/02 06:26:16;;;;;;;12.85;6.30;;;;;;;17.30;nan;99581.88;7395081;19;20451;-56
2023/12/02 06:28:42;;;;;;;5.65;3.60;;;;;;;17.33;nan;99578.00;7394850;19;20011;-56
2023/12/02 06:31:15;;;;;;;4.47;3.45;;;;;;;17.42;nan;99579.69;7395049;19;20007;-56
2023/12/02 06:33:41;;;;;;;8.02;3.85;;;;;;;17.34;nan;99581.59;7393121;19;20014;-56
2023/12/02 06:36:08;;;;;;;11.88;4.88;;;;;;;17.03;nan;99582.94;7396576;19;20017;-56
2023/12/02 06:38:38;;;;;;;2.47;2.35;;;;;;;17.09;nan;99588.50;7394481;19;20018;-56
2023/12/02 06:41:05;;;;;;;2.88;2.33;;;;;;;16.99;nan;99592.94;7393429;19;20038;-56
2023/12/02 06:43:31;;;;;;;2.95;2.75;;;;;;;16.97;nan;99595.53;7393326;19;20463;-56
2023/12/02 06:45:57;;;;;;;0.68;0.68;;;;;;;16.81;nan;99590.81;7393045;19;20011;-56
2023/12/02 06:48:23;;;;;;;2.67;2.50;;;;;;;18.36;nan;99586.94;7392561;19;20496;-56
2023/12/02 06:50:49;;;;;;;3.70;2.67;;;;;;;18.60;nan;99588.91;7393376;19;20352;-56
2023/12/02 06:53:16;;;;;;;2.35;2.15;;;;;;;18.72;nan;99584.56;7393440;19;20018;-56
2023/12/02 06:55:43;;;;;;;2.38;2.17;;;;;;;18.73;nan;99598.13;7392526;19;20014;-56
2023/12/02 06:58:09;;;;;;;7.40;3.30;;;;;;;18.73;nan;99605.88;7397435;19;20082;-56
2023/12/02 07:00:35;;;;;;;3.92;3.63;;;;;;;18.68;nan;99601.06;7397017;19;20014;-56
2023/12/02 07:03:01;;;;;;;2.47;2.35;;;;;;;18.74;nan;99593.25;7396446;19;20056;-56
2023/12/02 07:05:27;;;;;;;2.53;2.33;;;;;;;18.87;nan;99596.13;7396801;19;20017;-56
2023/12/02 07:07:53;;;;;;;2.55;2.45;;;;;;;18.69;nan;99596.97;7396303;19;20356;-56
2023/12/02 07:10:19;;;;;;;7.88;4.72;;;;;;;18.70;nan;99598.47;7396745;19;20014;-56
2023/12/02 07:12:45;;;;;;;1.45;1.45;;;;;;;18.63;nan;99593.44;7396907;19;20455;-55
2023/12/02 07:15:12;;;;;;;5.40;2.95;;;;;;;18.54;nan;99599.47;7396649;19;20463;-55
2023/12/02 07:17:38;;;;;;;2.67;2.53;;;;;;;18.56;nan;99602.56;7396625;19;20558;-56
2023/12/02 07:20:05;;;;;;;1.55;1.55;;;;;;;17.68;nan;99601.69;7393744;19;20017;-56
2023/12/02 07:22:31;;;;;;;1.83;1.77;;;;;;;17.11;nan;99594.34;7393935;19;20355;-56
2023/12/02 07:24:57;;;;;;;5.20;4.15;;;;;;;17.06;nan;99603.63;7392889;19;20019;-56
2023/12/02 07:27:23;;;;;;;4.03;3.42;;;;;;;17.73;nan;99604.47;7392157;19;20007;-56
2023/12/02 07:29:50;;;;;;;1.42;1.42;;;;;;;17.27;nan;99618.75;7392022;19;20023;-55
2023/12/02 07:32:16;;;;;;;5.10;3.05;;;;;;;16.71;nan;99612.91;7395412;19;20494;-56
2023/12/02 07:34:42;;;;;;;8.57;4.70;;;;;;;16.65;nan;99621.34;7390602;19;20007;-56
2023/12/02 07:37:08;;;;;;;2.53;2.42;;;;;;;16.63;nan;99618.31;7393925;19;20014;-56
2023/12/02 07:39:34;;;;;;;5.68;3.53;;;;;;;16.72;nan;99625.66;7389867;19;20015;-55
2023/12/02 07:42:00;;;;;;;4.40;2.55;;;;;;;16.87;nan;99614.78;7389083;19;20011;-55
2023/12/02 07:44:26;;;;;;;0.73;0.73;;;;;;;16.80;nan;99617.41;7388739;19;20006;-55
2023/12/02 07:46:52;;;;;;;1.85;1.75;;;;;;;16.71;nan;99624.13;7388608;19;20010;-56
2023/12/02 07:49:18;;;;;;;2.45;2.13;;;;;;;16.59;nan;99626.25;7388746;19;20021;-57
2023/12/02 07:51:45;;;;;;;1.33;1.27;;;;;;;16.52;nan;99618.38;7391418;19;20083;-56
2023/12/02 07:54:11;;;;;;;8.25;3.90;;;;;;;16.78;nan;99634.06;7390229;19;20344;-56
2023/12/02 07:56:39;;;;;;;4.38;2.83;;;;;;;16.60;nan;99627.03;7395285;19;20043;-56
2023/12/02 07:59:05;;;;;;;17.17;4.50;;;;;;;17.08;nan;99627.16;7400041;19;20459;-56
2023/12/02 08:01:31;;;;;;;0.75;0.75;;;;;;;16.37;nan;99634.81;7397552;19;20019;-56
2023/12/02 08:03:57;;;;;;;2.90;2.75;;;;;;;16.14;nan;99643.91;7400002;19;20078;-56
2023/12/02 08:06:23;;;;;;;9.15;2.72;;;;;;;16.26;nan;99643.34;7402300;19;20022;-56
2023/12/02 08:08:50;;;;;;;4.85;4.18;;;;;;;16.35;nan;99637.38;7401522;19;20484;-56
2023/12/02 08:11:16;;;;;;;6.22;3.60;;;;;;;16.40;nan;99639.41;7399270;19;20033;-61
2023/12/02 08:13:42;;;;;;;4.43;4.03;;;;;;;16.89;nan;99639.59;7399303;19;20082;-57
2023/12/02 08:16:08;;;;;;;7.03;3.47;;;;;;;16.84;nan;99634.78;7398415;19;20070;-57
2023/12/02 08:18:35;;;;;;;7.90;2.85;;;;;;;16.83;nan;99636.81;7398102;19;20031;-61
2023/12/02 08:21:01;;;;;;;7.05;2.80;;;;;;;16.84;nan;99640.41;7397862;19;20403;-56
2023/12/02 08:23:27;;;;;;;1.90;1.88;;;;;;;16.93;nan;99645.69;7396992;19;20018;-55
2023/12/02 08:25:54;;;;;;;5.65;5.03;;;;;;;16.81;nan;99650.63;7398258;19;20357;-55
2023/12/02 08:28:20;;;;;;;4.05;3.75;;;;;;;17.04;nan;99651.22;7398560;19;20010;-56
2023/12/02 08:30:46;;;;;;;11.23;5.28;;;;;;;18.21;nan;99647.91;7398343;19;20033;-55
2023/12/02 08:33:12;;;;;;;1.15;1.15;;;;;;;18.52;nan;99650.78;7402328;19;20015;-55
2023/12/02 08:35:38;;;;;;;19.50;5.78;;;;;;;18.24;nan;99655.25;7399489;19;20003;-56
2023/12/02 08:38:04;;;;;;;3.05;2.88;;;;;;;17.94;nan;99659.00;7398589;19;20028;-56
2023/12/02 08:40:31;;;;;;;3.53;2.80;;;;;;;17.74;nan;99662.31;7397822;19;20364;-56
2023/12/02 08:42:57;;;;;;;8.52;3.40;;;;;;;17.87;nan;99665.22;7401649;19;20007;-57
2023/12/02 08:45:23;;;;;;;4.75;2.30;;;;;;;17.68;nan;99681.31;7402256;19;20038;-57
2023/12/02 08:47:49;;;;;;;3.15;2.88;;;;;;;17.76;nan;99682.25;7396441;19;20018;-56
2023/12/02 08:50:15;;;;;;;3.65;3.25;;;;;;;17.65;nan;99681.63;7397274;19;20026;-57
2023/12/02 08:52:41;;;;;;;7.50;4.07;;;;;;;17.74;nan;99681.25;7400291;19;20037;-57
2023/12/02 08:55:07;;;;;;;6.70;3.83;;;;;;;19.10;nan;99681.94;7396910;19;20066;-57
2023/12/02 08:57:34;;;;;;;8.40;2.80;;;;;;;18.03;nan;99686.81;7396803;19;20015;-57
2023/12/02 09:00:00;;;;;;;24.60;8.18;;;;;;;18.26;nan;99690.09;7397120;19;20011;-56
2023/12/02 09:02:26;;;;;;;4.38;3.28;;;;;;;18.36;nan;99687.66;7396919;19;20040;-57
2023/12/02 09:04:52;;;;;;;2.55;2.35;;;;;;;19.32;nan;99675.91;7396724;19;20035;-57
2023/12/02 09:07:18;;;;;;;6.25;3.60;;;;;;;19.63;nan;99674.34;7398123;19;20543;-57
2023/12/02 09:09:45;;;;;;;8.68;3.97;;;;;;;19.84;nan;99683.69;7399193;19;20022;-57
2023/12/02 09:12:11;;;;;;;7.57;3.25;;;;;;;19.94;nan;99678.38;7398257;19;20029;-56
2023/12/02 09:14:38;;;;;;;12.45;3.08;;;;;;;19.90;nan;99672.28;7396864;19;20490;-57
2023/12/02 09:17:04;;;;;;;5.25;1.63;;;;;;;19.12;nan;99668.06;7397647;19;20019;-56
2023/12/02 09:19:49;;;;;;;3.85;2.35;;;;;;;19.37;nan;99660.97;7397197;19;20034;-56
2023/12/02 09:22:47;;;;;;;1.73;1.63;;;;;;;18.90;nan;99665.59;7395954;19;20014;-56
2023/12/02 09:25:30;;;;;;;2.50;2.30;;;;;;;19.01;nan;99668.25;7394332;19;20463;-56
2023/12/02 09:28:05;;;;;;;3.15;1.60;;;;;;;18.96;nan;99662.69;7396426;19;20011;-56
2023/12/02 09:30:37;;;;;;;1.25;1.25;;;;;;;18.92;nan;99663.00;7394020;19;20018;-56
2023/12/02 09:33:06;;;;;;;1.98;1.88;;;;;;;19.64;nan;99653.28;7399265;19;20447;-57
2023/12/02 09:35:33;;;;;;;2.13;1.48;;;;;;;20.37;nan;99658.97;7394049;19;20042;-56
2023/12/02 09:38:01;;;;;;;3.05;2.35;;;;;;;19.53;nan;99645.00;7394636;19;20038;-56
2023/12/02 09:41:00;;;;;;;2.10;1.83;;;;;;;20.10;nan;99657.47;7394109;19;20010;-58
2023/12/02 09:43:28;;;;;;;9.57;2.70;;;;;;;20.57;nan;99652.59;7399647;19;20074;-55
2023/12/02 09:46:13;;;;;;;7.10;2.03;;;;;;;19.95;nan;99662.91;7392838;19;20070;-56
2023/12/02 09:49:09;;;;;;;1.80;1.73;;;;;;;19.27;nan;99662.66;7391824;19;20340;-56
2023/12/02 09:51:48;;;;;;;1.38;0.88;;;;;;;19.15;nan;99661.31;7392773;19;20473;-55
2023/12/02 09:54:32;;;;;;;1.20;1.20;;;;;;;19.27;nan;99668.31;7392729;19;20018;-55
2023/12/02 09:57:18;;;;;;;2.42;2.22;;;;;;;19.21;nan;99664.06;7394573;19;20066;-56
2023/12/02 10:00:00;;;;;;;6.32;1.75;;;;;;;19.19;nan;99661.75;7391948;19;20010;-56
2023/12/02 10:02:49;;;;;;;20.13;2.53;;;;;;;20.00;nan;99662.81;7395869;19;20007;-57
2023/12/02 10:05:15;;;;;;;2.28;1.40;;;;;;;19.56;nan;99667.28;7396824;19;20030;-56
2023/12/02 10:08:00;;;;;;;0.68;0.63;;;;;;;19.79;nan;99661.97;7395840;19;20007;-56
2023/12/02 10:10:37;;;;;;;2.92;2.05;;;;;;;20.87;nan;99666.28;7394473;19;20015;-56
2023/12/02 10:13:25;;;;;;;11.95;2.67;;;;;;;21.43;nan;99660.78;7398119;19;20459;-57
2023/12/02 10:15:57;;;;;;;1.00;1.00;;;;;;;21.64;nan;99657.88;7394163;19;20017;-56
2023/12/02 10:18:32;;;;;;;0.50;0.45;;;;;;;21.56;nan;99655.00;7394028;19;20010;-57
2023/12/02 10:21:01;;;;;;;4.85;1.52;;;;;;;21.86;nan;99663.72;7394394;19;20114;-57
2023/12/02 10:24:05;;;;;;;1.02;1.02;;;;;;;21.54;nan;99673.88;7399768;19;20078;-57
2023/12/02 10:26:42;;;;;;;24.73;7.80;;;;;;;22.16;nan;99679.38;7395329;19;20462;-56
2023/12/02 10:29:40;;;;;;;2.30;2.20;;;;;;;21.61;nan;99671.09;7394050;19;20074;-56
2023/12/02 10:32:06;;;;;;;0.68;0.68;;;;;;;21.53;nan;99675.19;7394650;19;20016;-56
2023/12/02 10:34:47;;;;;;;4.63;3.13;;;;;;;21.41;nan;99674.72;7393941;19;20011;-56
2023/12/02 10:37:13;;;;;;;2.55;1.52;;;;;;;21.46;nan;99675.91;7395001;19;20038;-57
2023/12/02 10:39:48;;;;;;;1.70;1.60;;;;;;;21.62;nan;99666.94;7393463;19;20007;-56
2023/12/02 10:42:21;;;;;;;1.08;1.02;;;;;;;21.77;nan;99666.28;7392868;19;20114;-56
2023/12/02 10:44:50;;;;;;;1.65;1.55;;;;;;;21.62;nan;99666.19;7394558;19;20570;-56
2023/12/02 10:47:17;;;;;;;2.30;2.10;;;;;;;21.53;nan;99658.19;7394515;19;20392;-56
2023/12/02 10:49:45;;;;;;;3.60;1.17;;;;;;;22.45;nan;99655.28;7393946;19;20222;-56
2023/12/02 10:52:13;;;;;;;3.00;1.08;;;;;;;22.92;nan;99647.09;7396861;19;20021;-56
2023/12/02 10:54:43;;;;;;;3.92;1.83;;;;;;;23.31;nan;99648.59;7394641;19;20027;-56
2023/12/02 10:57:10;;;;;;;1.80;0.93;;;;;;;23.29;nan;99643.50;7396353;19;20007;-56
2023/12/02 10:59:59;;;;;;;1.33;1.33;;;;;;;23.24;nan;99649.34;7394759;19;20026;-57
2023/12/02 11:02:30;;;;;;;3.80;2.10;;;;;;;23.31;nan;99648.59;7395013;19;20010;-57
2023/12/02 11:05:22;;;;;;;2.60;2.15;;;;;;;23.51;nan;99649.75;7394267;19;20010;-57
2023/12/02 11:07:52;;;;;;;;;;;;;;;23.87;nan;99653.09;7394684;19;20018;-57
2023/12/02 11:10:46;;;;;;;1.73;1.10;;;;;;;23.86;nan;99646.66;7394258;19;19918;-57
2023/12/02 11:13:18;;;;;;;0.57;0.57;;;;;;;24.18;nan;99648.09;7396486;19;20090;-56
2023/12/02 11:16:08;;;;;;;1.88;1.63;;;;;;;24.36;nan;99658.28;7391894;19;20010;-57
2023/12/02 11:19:01;;;;;;;1.40;1.30;;;;;;;24.52;nan;99654.00;7392794;19;20014;-57
2023/12/02 11:21:39;;;;;;;7.07;2.35;;;;;;;24.00;nan;99656.47;7391024;19;20040;-57
2023/12/02 11:24:05;;;;;;;2.28;1.98;;;;;;;21.80;nan;99659.50;7391991;19;20017;-57
2023/12/02 11:26:34;;;;;;;3.60;1.95;;;;;;;21.77;nan;99666.28;7391204;19;20010;-57
2023/12/02 11:29:07;;;;;;;7.88;1.95;;;;;;;21.25;nan;99663.81;7391156;19;20091;-57
2023/12/02 11:31:39;;;;;;;2.83;1.38;;;;;;;20.91;nan;99673.13;7396434;19;20014;-57
2023/12/02 11:34:12;;;;;;;1.08;1.08;;;;;;;20.73;nan;99668.41;7400169;19;20010;-57
2023/12/02 11:37:16;;;;;;;0.88;0.88;;;;;;;21.20;nan;99670.41;7402887;19;20027;-57
2023/12/02 11:39:52;;;;;;;4.80;2.05;;;;;;;21.72;nan;99665.09;7403811;19;20014;-57
2023/12/02 11:42:19;;;;;;;1.52;1.42;;;;;;;20.89;nan;99664.44;7401401;19;20006;-57
2023/12/02 11:44:45;;;;;;;1.30;1.25;;;;;;;20.82;nan;99662.28;7399354;19;20462;-57
2023/12/02 11:47:37;;;;;;;2.58;1.23;;;;;;;21.14;nan;99671.28;7400104;19;20062;-57
2023/12/02 11:50:37;;;;;;;1.45;1.40;;;;;;;21.94;nan;99666.59;7399331;19;20015;-57
2023/12/02 11:53:26;;;;;;;1.25;1.15;;;;;;;20.79;nan;99683.19;7402844;19;20038;-57
2023/12/02 11:56:25;;;;;;;0.95;0.95;;;;;;;20.11;nan;99673.13;7399912;19;20032;-57